New York, New York
Traffic Map
Current Weather Conditions
New York, New York
Clear
Clear
13°
Feels Like: 13°
Wind Chill: 13° Ceiling: Unl
Heat Index: 13° Visibility: 7mi
Dew Point: 11° Wind: 0mph
Humidity: 84% Direction: ° ()
Pressure: 29.94in Gusts: 0mph
Raw Report DataKNYC 030051Z AUTO 00000KT 7SM CLR 13/11 A2994 RMK AO2 SLP130 T01330106 $
Traffic Incident Summary
Active as of:
Severity:
Category:
InformationThere was an issue retrieving the traffic information for this location. Please try a different location or try again shortly.
Advertisements
Track Severe Weather on mobile